sensor_id;sensor_type;location;lat;lon;timestamp;P1;durP1;ratioP1;P2;durP2;ratioP2
8526;SDS011;4301;48.362;8.478;2022-07-29T00:00:08;62.37;;;15.37;;
8526;SDS011;4301;48.362;8.478;2022-07-29T00:02:36;42.57;;;14.70;;
8526;SDS011;4301;48.362;8.478;2022-07-29T00:05:04;48.20;;;14.87;;
8526;SDS011;4301;48.362;8.478;2022-07-29T00:07:31;14.90;;;13.30;;
8526;SDS011;4301;48.362;8.478;2022-07-29T00:09:58;39.23;;;13.23;;
8526;SDS011;4301;48.362;8.478;2022-07-29T00:12:27;35.17;;;13.17;;
8526;SDS011;4301;48.362;8.478;2022-07-29T00:14:54;48.40;;;13.53;;
8526;SDS011;4301;48.362;8.478;2022-07-29T00:17:21;14.30;;;12.97;;
8526;SDS011;4301;48.362;8.478;2022-07-29T00:19:48;14.67;;;13.43;;
8526;SDS011;4301;48.362;8.478;2022-07-29T00:22:15;13.00;;;12.00;;
8526;SDS011;4301;48.362;8.478;2022-07-29T00:24:42;10.97;;;10.17;;
8526;SDS011;4301;48.362;8.478;2022-07-29T00:27:09;13.33;;;11.93;;
8526;SDS011;4301;48.362;8.478;2022-07-29T00:29:38;14.93;;;12.33;;
8526;SDS011;4301;48.362;8.478;2022-07-29T00:32:06;22.23;;;11.67;;
8526;SDS011;4301;48.362;8.478;2022-07-29T00:34:33;16.57;;;12.00;;
8526;SDS011;4301;48.362;8.478;2022-07-29T00:37:17;16.97;;;12.83;;
8526;SDS011;4301;48.362;8.478;2022-07-29T00:39:44;20.40;;;13.20;;
8526;SDS011;4301;48.362;8.478;2022-07-29T00:42:11;18.57;;;12.97;;
8526;SDS011;4301;48.362;8.478;2022-07-29T00:44:40;68.80;;;14.37;;
8526;SDS011;4301;48.362;8.478;2022-07-29T00:47:08;17.47;;;14.70;;
8526;SDS011;4301;48.362;8.478;2022-07-29T00:49:37;28.67;;;14.53;;
8526;SDS011;4301;48.362;8.478;2022-07-29T00:52:05;28.93;;;14.27;;
8526;SDS011;4301;48.362;8.478;2022-07-29T00:54:34;21.43;;;14.03;;
8526;SDS011;4301;48.362;8.478;2022-07-29T00:57:01;16.30;;;13.60;;
8526;SDS011;4301;48.362;8.478;2022-07-29T00:59:29;15.17;;;13.47;;
8526;SDS011;4301;48.362;8.478;2022-07-29T01:01:57;14.80;;;12.07;;
8526;SDS011;4301;48.362;8.478;2022-07-29T01:04:24;12.73;;;11.53;;
8526;SDS011;4301;48.362;8.478;2022-07-29T01:06:52;12.53;;;11.40;;
8526;SDS011;4301;48.362;8.478;2022-07-29T01:09:21;11.13;;;10.23;;
8526;SDS011;4301;48.362;8.478;2022-07-29T01:11:48;10.90;;;10.00;;
8526;SDS011;4301;48.362;8.478;2022-07-29T01:14:17;10.17;;;9.40;;
8526;SDS011;4301;48.362;8.478;2022-07-29T01:16:45;10.40;;;9.70;;
8526;SDS011;4301;48.362;8.478;2022-07-29T01:19:23;13.77;;;10.10;;
8526;SDS011;4301;48.362;8.478;2022-07-29T01:22:15;11.40;;;10.23;;
8526;SDS011;4301;48.362;8.478;2022-07-29T01:24:58;10.37;;;9.57;;
8526;SDS011;4301;48.362;8.478;2022-07-29T01:27:41;10.13;;;9.43;;
8526;SDS011;4301;48.362;8.478;2022-07-29T01:30:19;9.83;;;9.13;;
8526;SDS011;4301;48.362;8.478;2022-07-29T01:32:49;11.67;;;10.50;;
8526;SDS011;4301;48.362;8.478;2022-07-29T01:35:21;13.20;;;10.67;;
8526;SDS011;4301;48.362;8.478;2022-07-29T01:37:54;11.40;;;10.50;;
8526;SDS011;4301;48.362;8.478;2022-07-29T01:40:27;11.10;;;10.20;;
8526;SDS011;4301;48.362;8.478;2022-07-29T01:42:59;10.43;;;9.53;;
8526;SDS011;4301;48.362;8.478;2022-07-29T01:45:37;35.40;;;12.13;;
8526;SDS011;4301;48.362;8.478;2022-07-29T01:48:13;78.17;;;13.33;;
8526;SDS011;4301;48.362;8.478;2022-07-29T01:50:45;167.27;;;14.87;;
8526;SDS011;4301;48.362;8.478;2022-07-29T01:53:17;47.43;;;12.37;;
8526;SDS011;4301;48.362;8.478;2022-07-29T01:55:51;14.60;;;11.10;;
8526;SDS011;4301;48.362;8.478;2022-07-29T01:58:20;11.17;;;10.27;;
8526;SDS011;4301;48.362;8.478;2022-07-29T02:00:50;11.37;;;10.27;;
8526;SDS011;4301;48.362;8.478;2022-07-29T02:03:20;12.03;;;10.63;;
8526;SDS011;4301;48.362;8.478;2022-07-29T02:05:49;11.63;;;10.73;;
8526;SDS011;4301;48.362;8.478;2022-07-29T02:08:17;11.23;;;10.33;;
8526;SDS011;4301;48.362;8.478;2022-07-29T02:10:46;12.50;;;10.40;;
8526;SDS011;4301;48.362;8.478;2022-07-29T02:13:14;11.23;;;10.33;;
8526;SDS011;4301;48.362;8.478;2022-07-29T02:15:42;10.17;;;9.20;;
8526;SDS011;4301;48.362;8.478;2022-07-29T02:18:13;11.97;;;10.37;;
8526;SDS011;4301;48.362;8.478;2022-07-29T02:20:42;11.37;;;10.40;;
8526;SDS011;4301;48.362;8.478;2022-07-29T02:23:13;10.00;;;9.07;;
8526;SDS011;4301;48.362;8.478;2022-07-29T02:25:44;12.00;;;10.80;;
8526;SDS011;4301;48.362;8.478;2022-07-29T02:28:13;28.00;;;11.50;;
8526;SDS011;4301;48.362;8.478;2022-07-29T02:30:42;11.43;;;10.43;;
8526;SDS011;4301;48.362;8.478;2022-07-29T02:33:13;74.00;;;11.73;;
8526;SDS011;4301;48.362;8.478;2022-07-29T02:35:42;45.83;;;11.87;;
8526;SDS011;4301;48.362;8.478;2022-07-29T02:38:12;89.80;;;13.30;;
8526;SDS011;4301;48.362;8.478;2022-07-29T02:40:58;69.00;;;12.90;;
8526;SDS011;4301;48.362;8.478;2022-07-29T02:43:29;33.53;;;12.60;;
8526;SDS011;4301;48.362;8.478;2022-07-29T02:45:58;45.30;;;11.60;;
8526;SDS011;4301;48.362;8.478;2022-07-29T02:48:38;13.53;;;11.40;;
8526;SDS011;4301;48.362;8.478;2022-07-29T02:51:08;11.27;;;9.43;;
8526;SDS011;4301;48.362;8.478;2022-07-29T02:53:44;13.80;;;11.07;;
8526;SDS011;4301;48.362;8.478;2022-07-29T02:56:14;109.90;;;10.80;;
8526;SDS011;4301;48.362;8.478;2022-07-29T02:58:45;18.43;;;9.67;;
8526;SDS011;4301;48.362;8.478;2022-07-29T03:01:20;14.80;;;9.27;;
8526;SDS011;4301;48.362;8.478;2022-07-29T03:03:51;10.17;;;9.37;;
8526;SDS011;4301;48.362;8.478;2022-07-29T03:06:22;18.17;;;9.30;;
8526;SDS011;4301;48.362;8.478;2022-07-29T03:08:52;9.90;;;9.20;;
8526;SDS011;4301;48.362;8.478;2022-07-29T03:11:20;10.00;;;9.23;;
8526;SDS011;4301;48.362;8.478;2022-07-29T03:13:48;9.90;;;9.10;;
8526;SDS011;4301;48.362;8.478;2022-07-29T03:16:15;10.60;;;9.80;;
8526;SDS011;4301;48.362;8.478;2022-07-29T03:18:44;10.50;;;9.60;;
8526;SDS011;4301;48.362;8.478;2022-07-29T03:21:13;9.77;;;8.20;;
8526;SDS011;4301;48.362;8.478;2022-07-29T03:23:43;8.77;;;7.97;;
8526;SDS011;4301;48.362;8.478;2022-07-29T03:26:10;8.83;;;8.13;;
8526;SDS011;4301;48.362;8.478;2022-07-29T03:28:37;9.73;;;8.93;;
8526;SDS011;4301;48.362;8.478;2022-07-29T03:31:04;9.77;;;8.97;;
8526;SDS011;4301;48.362;8.478;2022-07-29T03:33:31;10.37;;;9.50;;
8526;SDS011;4301;48.362;8.478;2022-07-29T03:35:59;9.33;;;8.40;;
8526;SDS011;4301;48.362;8.478;2022-07-29T03:38:29;9.27;;;8.43;;
8526;SDS011;4301;48.362;8.478;2022-07-29T03:41:00;11.90;;;8.90;;
8526;SDS011;4301;48.362;8.478;2022-07-29T03:43:32;25.67;;;9.40;;
8526;SDS011;4301;48.362;8.478;2022-07-29T03:46:02;10.70;;;9.90;;
8526;SDS011;4301;48.362;8.478;2022-07-29T03:48:32;11.67;;;10.20;;
8526;SDS011;4301;48.362;8.478;2022-07-29T03:51:03;11.30;;;10.20;;
8526;SDS011;4301;48.362;8.478;2022-07-29T03:53:31;11.07;;;10.17;;
8526;SDS011;4301;48.362;8.478;2022-07-29T03:56:00;10.63;;;9.63;;
8526;SDS011;4301;48.362;8.478;2022-07-29T03:58:29;10.60;;;9.70;;
8526;SDS011;4301;48.362;8.478;2022-07-29T04:00:58;10.83;;;9.93;;
8526;SDS011;4301;48.362;8.478;2022-07-29T04:03:25;11.23;;;10.37;;
8526;SDS011;4301;48.362;8.478;2022-07-29T04:05:59;10.90;;;10.00;;
8526;SDS011;4301;48.362;8.478;2022-07-29T04:08:27;11.70;;;10.30;;
8526;SDS011;4301;48.362;8.478;2022-07-29T04:10:55;11.70;;;10.60;;
8526;SDS011;4301;48.362;8.478;2022-07-29T04:13:23;10.87;;;9.00;;
8526;SDS011;4301;48.362;8.478;2022-07-29T04:15:50;9.93;;;8.67;;
8526;SDS011;4301;48.362;8.478;2022-07-29T04:18:17;10.63;;;9.63;;
8526;SDS011;4301;48.362;8.478;2022-07-29T04:20:44;10.07;;;9.10;;
8526;SDS011;4301;48.362;8.478;2022-07-29T04:23:11;11.07;;;10.00;;
8526;SDS011;4301;48.362;8.478;2022-07-29T04:25:38;10.00;;;9.20;;
8526;SDS011;4301;48.362;8.478;2022-07-29T04:28:07;10.50;;;9.60;;
8526;SDS011;4301;48.362;8.478;2022-07-29T04:30:36;10.70;;;9.80;;
8526;SDS011;4301;48.362;8.478;2022-07-29T04:33:04;10.43;;;9.33;;
8526;SDS011;4301;48.362;8.478;2022-07-29T04:35:33;9.60;;;8.90;;
8526;SDS011;4301;48.362;8.478;2022-07-29T04:38:01;10.73;;;9.70;;
8526;SDS011;4301;48.362;8.478;2022-07-29T04:40:29;9.43;;;8.53;;
8526;SDS011;4301;48.362;8.478;2022-07-29T04:42:58;9.70;;;8.90;;
8526;SDS011;4301;48.362;8.478;2022-07-29T04:45:26;10.40;;;9.33;;
8526;SDS011;4301;48.362;8.478;2022-07-29T04:47:54;10.80;;;9.80;;
8526;SDS011;4301;48.362;8.478;2022-07-29T04:50:21;11.63;;;10.63;;
8526;SDS011;4301;48.362;8.478;2022-07-29T04:52:48;11.27;;;10.27;;
8526;SDS011;4301;48.362;8.478;2022-07-29T04:55:15;11.77;;;10.60;;
8526;SDS011;4301;48.362;8.478;2022-07-29T04:57:42;11.17;;;10.20;;
8526;SDS011;4301;48.362;8.478;2022-07-29T05:00:09;11.37;;;10.27;;
8526;SDS011;4301;48.362;8.478;2022-07-29T05:02:38;12.10;;;10.93;;
8526;SDS011;4301;48.362;8.478;2022-07-29T05:05:06;11.73;;;10.60;;
8526;SDS011;4301;48.362;8.478;2022-07-29T05:07:34;11.80;;;10.13;;
8526;SDS011;4301;48.362;8.478;2022-07-29T05:10:01;10.57;;;9.60;;
8526;SDS011;4301;48.362;8.478;2022-07-29T05:12:28;10.63;;;9.77;;
8526;SDS011;4301;48.362;8.478;2022-07-29T05:14:55;11.03;;;10.03;;
8526;SDS011;4301;48.362;8.478;2022-07-29T05:17:22;11.00;;;9.97;;
8526;SDS011;4301;48.362;8.478;2022-07-29T05:19:51;10.83;;;9.93;;
8526;SDS011;4301;48.362;8.478;2022-07-29T05:22:18;11.57;;;10.57;;
8526;SDS011;4301;48.362;8.478;2022-07-29T05:24:45;10.13;;;9.33;;
8526;SDS011;4301;48.362;8.478;2022-07-29T05:27:12;11.20;;;10.10;;
8526;SDS011;4301;48.362;8.478;2022-07-29T05:29:39;11.57;;;10.37;;
8526;SDS011;4301;48.362;8.478;2022-07-29T05:32:07;11.07;;;10.05;;
8526;SDS011;4301;48.362;8.478;2022-07-29T05:34:34;10.70;;;9.77;;
8526;SDS011;4301;48.362;8.478;2022-07-29T05:37:02;10.23;;;9.43;;
8526;SDS011;4301;48.362;8.478;2022-07-29T05:39:29;11.77;;;10.60;;
8526;SDS011;4301;48.362;8.478;2022-07-29T05:41:56;14.13;;;9.53;;
8526;SDS011;4301;48.362;8.478;2022-07-29T05:44:23;10.33;;;9.17;;
8526;SDS011;4301;48.362;8.478;2022-07-29T05:46:50;10.30;;;9.47;;
8526;SDS011;4301;48.362;8.478;2022-07-29T05:49:17;10.47;;;9.47;;
8526;SDS011;4301;48.362;8.478;2022-07-29T05:51:44;9.53;;;8.77;;
8526;SDS011;4301;48.362;8.478;2022-07-29T05:54:14;9.87;;;9.07;;
8526;SDS011;4301;48.362;8.478;2022-07-29T05:56:41;10.33;;;9.43;;
8526;SDS011;4301;48.362;8.478;2022-07-29T05:59:08;10.73;;;9.83;;
8526;SDS011;4301;48.362;8.478;2022-07-29T06:01:35;10.27;;;9.30;;
8526;SDS011;4301;48.362;8.478;2022-07-29T06:04:04;11.13;;;10.03;;
8526;SDS011;4301;48.362;8.478;2022-07-29T06:06:32;10.23;;;9.30;;
8526;SDS011;4301;48.362;8.478;2022-07-29T06:08:59;9.37;;;8.43;;
8526;SDS011;4301;48.362;8.478;2022-07-29T06:11:28;9.60;;;8.70;;
8526;SDS011;4301;48.362;8.478;2022-07-29T06:13:55;8.67;;;7.87;;
8526;SDS011;4301;48.362;8.478;2022-07-29T06:16:22;10.77;;;9.90;;
8526;SDS011;4301;48.362;8.478;2022-07-29T06:18:49;8.83;;;7.93;;
8526;SDS011;4301;48.362;8.478;2022-07-29T06:21:17;7.93;;;7.23;;
8526;SDS011;4301;48.362;8.478;2022-07-29T06:23:44;7.97;;;7.27;;
8526;SDS011;4301;48.362;8.478;2022-07-29T06:26:11;7.30;;;6.70;;
8526;SDS011;4301;48.362;8.478;2022-07-29T06:28:40;6.93;;;6.40;;
8526;SDS011;4301;48.362;8.478;2022-07-29T06:31:07;7.03;;;6.43;;
8526;SDS011;4301;48.362;8.478;2022-07-29T06:33:34;8.50;;;6.43;;
8526;SDS011;4301;48.362;8.478;2022-07-29T06:36:03;7.70;;;6.90;;
8526;SDS011;4301;48.362;8.478;2022-07-29T06:38:30;6.80;;;6.30;;
8526;SDS011;4301;48.362;8.478;2022-07-29T06:40:58;6.90;;;6.30;;
8526;SDS011;4301;48.362;8.478;2022-07-29T06:43:26;8.70;;;6.03;;
8526;SDS011;4301;48.362;8.478;2022-07-29T06:45:57;6.83;;;6.23;;
8526;SDS011;4301;48.362;8.478;2022-07-29T06:48:26;6.37;;;5.87;;
8526;SDS011;4301;48.362;8.478;2022-07-29T06:50:54;5.83;;;5.40;;
8526;SDS011;4301;48.362;8.478;2022-07-29T06:53:21;5.80;;;5.27;;
8526;SDS011;4301;48.362;8.478;2022-07-29T06:55:48;5.97;;;5.50;;
8526;SDS011;4301;48.362;8.478;2022-07-29T06:58:15;6.40;;;5.80;;
8526;SDS011;4301;48.362;8.478;2022-07-29T07:00:45;7.40;;;5.50;;
8526;SDS011;4301;48.362;8.478;2022-07-29T07:03:13;6.43;;;5.57;;
8526;SDS011;4301;48.362;8.478;2022-07-29T07:05:41;5.70;;;5.23;;
8526;SDS011;4301;48.362;8.478;2022-07-29T07:08:09;4.80;;;4.50;;
8526;SDS011;4301;48.362;8.478;2022-07-29T07:10:37;4.57;;;4.27;;
8526;SDS011;4301;48.362;8.478;2022-07-29T07:13:04;5.20;;;4.77;;
8526;SDS011;4301;48.362;8.478;2022-07-29T07:15:32;6.40;;;4.73;;
8526;SDS011;4301;48.362;8.478;2022-07-29T07:17:59;5.27;;;4.60;;
8526;SDS011;4301;48.362;8.478;2022-07-29T07:20:28;5.77;;;3.90;;
8526;SDS011;4301;48.362;8.478;2022-07-29T07:22:55;3.77;;;3.47;;
8526;SDS011;4301;48.362;8.478;2022-07-29T07:25:22;5.87;;;3.43;;
8526;SDS011;4301;48.362;8.478;2022-07-29T07:27:50;4.17;;;3.80;;
8526;SDS011;4301;48.362;8.478;2022-07-29T07:30:17;4.77;;;3.50;;
8526;SDS011;4301;48.362;8.478;2022-07-29T07:32:45;3.87;;;3.30;;
8526;SDS011;4301;48.362;8.478;2022-07-29T07:35:12;5.73;;;3.50;;
8526;SDS011;4301;48.362;8.478;2022-07-29T07:37:40;5.43;;;3.00;;
8526;SDS011;4301;48.362;8.478;2022-07-29T07:40:08;3.63;;;3.38;;
8526;SDS011;4301;48.362;8.478;2022-07-29T07:42:37;5.20;;;3.17;;
8526;SDS011;4301;48.362;8.478;2022-07-29T07:45:04;3.80;;;3.40;;
8526;SDS011;4301;48.362;8.478;2022-07-29T07:47:34;3.55;;;3.25;;
8526;SDS011;4301;48.362;8.478;2022-07-29T07:50:01;4.68;;;3.33;;
8526;SDS011;4301;48.362;8.478;2022-07-29T07:52:29;4.47;;;3.00;;
8526;SDS011;4301;48.362;8.478;2022-07-29T07:54:57;6.82;;;3.50;;
8526;SDS011;4301;48.362;8.478;2022-07-29T07:57:24;6.80;;;3.45;;
8526;SDS011;4301;48.362;8.478;2022-07-29T07:59:52;5.85;;;3.83;;
8526;SDS011;4301;48.362;8.478;2022-07-29T08:02:19;3.70;;;3.40;;
8526;SDS011;4301;48.362;8.478;2022-07-29T08:04:46;4.43;;;3.28;;
8526;SDS011;4301;48.362;8.478;2022-07-29T08:07:13;4.85;;;3.53;;
8526;SDS011;4301;48.362;8.478;2022-07-29T08:09:40;4.25;;;3.20;;
8526;SDS011;4301;48.362;8.478;2022-07-29T08:12:09;5.38;;;3.10;;
8526;SDS011;4301;48.362;8.478;2022-07-29T08:14:36;6.15;;;3.40;;
8526;SDS011;4301;48.362;8.478;2022-07-29T08:17:03;5.80;;;3.30;;
8526;SDS011;4301;48.362;8.478;2022-07-29T08:19:30;3.65;;;2.95;;
8526;SDS011;4301;48.362;8.478;2022-07-29T08:21:57;4.10;;;3.72;;
8526;SDS011;4301;48.362;8.478;2022-07-29T08:24:24;8.18;;;3.90;;
8526;SDS011;4301;48.362;8.478;2022-07-29T08:27:10;3.47;;;3.28;;
8526;SDS011;4301;48.362;8.478;2022-07-29T08:29:38;3.97;;;3.45;;
8526;SDS011;4301;48.362;8.478;2022-07-29T08:32:05;6.35;;;3.70;;
8526;SDS011;4301;48.362;8.478;2022-07-29T08:34:32;4.40;;;3.10;;
8526;SDS011;4301;48.362;8.478;2022-07-29T08:36:59;6.65;;;3.50;;
8526;SDS011;4301;48.362;8.478;2022-07-29T08:39:27;3.78;;;3.30;;
8526;SDS011;4301;48.362;8.478;2022-07-29T08:41:54;3.92;;;3.22;;
8526;SDS011;4301;48.362;8.478;2022-07-29T08:44:22;4.45;;;3.20;;
8526;SDS011;4301;48.362;8.478;2022-07-29T08:46:50;3.58;;;3.28;;
8526;SDS011;4301;48.362;8.478;2022-07-29T08:49:17;7.57;;;3.25;;
8526;SDS011;4301;48.362;8.478;2022-07-29T08:51:44;4.13;;;3.55;;
8526;SDS011;4301;48.362;8.478;2022-07-29T08:54:12;6.07;;;3.75;;
8526;SDS011;4301;48.362;8.478;2022-07-29T08:56:43;5.40;;;3.63;;
8526;SDS011;4301;48.362;8.478;2022-07-29T08:59:14;4.03;;;3.67;;
8526;SDS011;4301;48.362;8.478;2022-07-29T09:01:43;4.75;;;3.78;;
8526;SDS011;4301;48.362;8.478;2022-07-29T09:04:12;5.93;;;3.53;;
8526;SDS011;4301;48.362;8.478;2022-07-29T09:06:42;6.13;;;3.30;;
8526;SDS011;4301;48.362;8.478;2022-07-29T09:09:10;5.18;;;3.50;;
8526;SDS011;4301;48.362;8.478;2022-07-29T09:11:38;5.82;;;3.30;;
8526;SDS011;4301;48.362;8.478;2022-07-29T09:14:06;3.75;;;3.45;;
8526;SDS011;4301;48.362;8.478;2022-07-29T09:16:45;7.68;;;3.53;;
8526;SDS011;4301;48.362;8.478;2022-07-29T09:19:23;7.38;;;3.70;;
8526;SDS011;4301;48.362;8.478;2022-07-29T09:21:55;5.80;;;3.50;;
8526;SDS011;4301;48.362;8.478;2022-07-29T09:24:25;4.20;;;3.40;;
8526;SDS011;4301;48.362;8.478;2022-07-29T09:27:01;6.22;;;3.83;;
8526;SDS011;4301;48.362;8.478;2022-07-29T09:29:29;4.55;;;3.95;;
8526;SDS011;4301;48.362;8.478;2022-07-29T09:31:58;4.28;;;3.83;;
8526;SDS011;4301;48.362;8.478;2022-07-29T09:34:25;4.10;;;3.70;;
8526;SDS011;4301;48.362;8.478;2022-07-29T09:36:56;7.68;;;3.90;;
8526;SDS011;4301;48.362;8.478;2022-07-29T09:39:26;5.85;;;3.70;;
8526;SDS011;4301;48.362;8.478;2022-07-29T09:41:56;5.72;;;3.70;;
8526;SDS011;4301;48.362;8.478;2022-07-29T09:44:25;6.25;;;3.58;;
8526;SDS011;4301;48.362;8.478;2022-07-29T09:46:58;4.93;;;3.53;;
8526;SDS011;4301;48.362;8.478;2022-07-29T09:49:31;4.72;;;3.67;;
8526;SDS011;4301;48.362;8.478;2022-07-29T09:52:05;5.32;;;3.45;;
8526;SDS011;4301;48.362;8.478;2022-07-29T09:54:33;4.18;;;3.58;;
8526;SDS011;4301;48.362;8.478;2022-07-29T09:57:05;3.38;;;3.17;;
8526;SDS011;4301;48.362;8.478;2022-07-29T09:59:34;4.32;;;3.70;;
8526;SDS011;4301;48.362;8.478;2022-07-29T10:02:03;3.70;;;3.40;;
8526;SDS011;4301;48.362;8.478;2022-07-29T10:04:38;5.80;;;3.65;;
8526;SDS011;4301;48.362;8.478;2022-07-29T10:07:06;3.85;;;3.40;;
8526;SDS011;4301;48.362;8.478;2022-07-29T10:09:33;4.78;;;3.92;;
8526;SDS011;4301;48.362;8.478;2022-07-29T10:12:08;3.70;;;3.40;;
8526;SDS011;4301;48.362;8.478;2022-07-29T10:14:38;5.57;;;3.92;;
8526;SDS011;4301;48.362;8.478;2022-07-29T10:17:08;3.85;;;3.58;;
8526;SDS011;4301;48.362;8.478;2022-07-29T10:19:36;6.43;;;3.70;;
8526;SDS011;4301;48.362;8.478;2022-07-29T10:22:04;5.82;;;3.67;;
8526;SDS011;4301;48.362;8.478;2022-07-29T10:24:33;4.93;;;3.42;;
8526;SDS011;4301;48.362;8.478;2022-07-29T10:27:01;4.50;;;4.10;;
8526;SDS011;4301;48.362;8.478;2022-07-29T10:29:29;4.32;;;3.83;;
8526;SDS011;4301;48.362;8.478;2022-07-29T10:32:00;8.07;;;3.97;;
8526;SDS011;4301;48.362;8.478;2022-07-29T10:34:54;22.23;;;8.23;;
8526;SDS011;4301;48.362;8.478;2022-07-29T10:37:47;3.78;;;3.58;;
8526;SDS011;4301;48.362;8.478;2022-07-29T10:40:34;4.68;;;4.05;;
8526;SDS011;4301;48.362;8.478;2022-07-29T10:43:28;6.22;;;3.88;;
8526;SDS011;4301;48.362;8.478;2022-07-29T10:45:58;5.10;;;3.97;;
8526;SDS011;4301;48.362;8.478;2022-07-29T10:48:27;4.45;;;3.80;;
8526;SDS011;4301;48.362;8.478;2022-07-29T10:50:55;4.40;;;3.92;;
8526;SDS011;4301;48.362;8.478;2022-07-29T10:53:25;6.72;;;4.05;;
8526;SDS011;4301;48.362;8.478;2022-07-29T10:56:26;5.45;;;3.90;;
8526;SDS011;4301;48.362;8.478;2022-07-29T11:01:53;5.53;;;4.20;;
8526;SDS011;4301;48.362;8.478;2022-07-29T11:07:23;4.30;;;3.67;;
8526;SDS011;4301;48.362;8.478;2022-07-29T11:12:48;4.47;;;3.90;;
8526;SDS011;4301;48.362;8.478;2022-07-29T11:15:16;4.32;;;3.88;;
8526;SDS011;4301;48.362;8.478;2022-07-29T11:20:35;4.15;;;3.80;;
8526;SDS011;4301;48.362;8.478;2022-07-29T11:23:25;8.80;;;4.10;;
8526;SDS011;4301;48.362;8.478;2022-07-29T11:28:56;8.48;;;3.75;;
8526;SDS011;4301;48.362;8.478;2022-07-29T11:31:33;5.15;;;3.78;;
8526;SDS011;4301;48.362;8.478;2022-07-29T11:34:18;7.40;;;4.13;;
8526;SDS011;4301;48.362;8.478;2022-07-29T11:42:47;4.32;;;3.90;;
8526;SDS011;4301;48.362;8.478;2022-07-29T11:45:22;4.03;;;3.63;;
8526;SDS011;4301;48.362;8.478;2022-07-29T11:47:54;4.32;;;3.92;;
8526;SDS011;4301;48.362;8.478;2022-07-29T11:50:28;7.63;;;4.03;;
8526;SDS011;4301;48.362;8.478;2022-07-29T11:52:58;5.45;;;3.72;;
8526;SDS011;4301;48.362;8.478;2022-07-29T11:55:28;4.47;;;3.85;;
8526;SDS011;4301;48.362;8.478;2022-07-29T11:57:56;4.97;;;3.97;;
8526;SDS011;4301;48.362;8.478;2022-07-29T12:00:28;4.32;;;3.53;;
8526;SDS011;4301;48.362;8.478;2022-07-29T12:02:57;4.78;;;3.83;;
8526;SDS011;4301;48.362;8.478;2022-07-29T12:05:35;7.88;;;3.95;;
8526;SDS011;4301;48.362;8.478;2022-07-29T12:08:08;4.90;;;3.58;;
8526;SDS011;4301;48.362;8.478;2022-07-29T12:10:39;3.78;;;3.50;;
8526;SDS011;4301;48.362;8.478;2022-07-29T12:13:07;4.47;;;3.30;;
8526;SDS011;4301;48.362;8.478;2022-07-29T12:15:35;4.85;;;3.83;;
8526;SDS011;4301;48.362;8.478;2022-07-29T12:20:45;10.85;;;3.45;;
8526;SDS011;4301;48.362;8.478;2022-07-29T12:23:13;4.53;;;3.20;;
8526;SDS011;4301;48.362;8.478;2022-07-29T12:25:43;6.63;;;3.30;;
8526;SDS011;4301;48.362;8.478;2022-07-29T12:28:11;3.50;;;3.20;;
8526;SDS011;4301;48.362;8.478;2022-07-29T12:30:41;3.50;;;3.17;;
8526;SDS011;4301;48.362;8.478;2022-07-29T12:33:14;6.00;;;3.17;;
8526;SDS011;4301;48.362;8.478;2022-07-29T12:35:44;4.30;;;3.15;;
8526;SDS011;4301;48.362;8.478;2022-07-29T12:38:13;5.20;;;3.15;;
8526;SDS011;4301;48.362;8.478;2022-07-29T12:40:43;3.80;;;3.22;;
8526;SDS011;4301;48.362;8.478;2022-07-29T12:43:12;7.50;;;3.20;;
8526;SDS011;4301;48.362;8.478;2022-07-29T12:45:41;4.82;;;3.38;;
8526;SDS011;4301;48.362;8.478;2022-07-29T12:48:10;5.03;;;3.28;;
8526;SDS011;4301;48.362;8.478;2022-07-29T12:50:51;3.10;;;2.80;;
8526;SDS011;4301;48.362;8.478;2022-07-29T12:53:23;3.95;;;2.90;;
8526;SDS011;4301;48.362;8.478;2022-07-29T12:55:53;4.60;;;2.90;;
8526;SDS011;4301;48.362;8.478;2022-07-29T12:58:25;6.45;;;3.10;;
8526;SDS011;4301;48.362;8.478;2022-07-29T13:01:00;3.97;;;2.80;;
8526;SDS011;4301;48.362;8.478;2022-07-29T13:03:29;9.25;;;3.08;;
8526;SDS011;4301;48.362;8.478;2022-07-29T13:06:07;3.47;;;2.83;;
8526;SDS011;4301;48.362;8.478;2022-07-29T13:09:01;3.95;;;2.90;;
8526;SDS011;4301;48.362;8.478;2022-07-29T13:11:36;4.82;;;3.33;;
8526;SDS011;4301;48.362;8.478;2022-07-29T13:14:05;5.22;;;3.10;;
8526;SDS011;4301;48.362;8.478;2022-07-29T13:16:33;3.10;;;2.90;;
8526;SDS011;4301;48.362;8.478;2022-07-29T13:19:08;3.30;;;3.00;;
8526;SDS011;4301;48.362;8.478;2022-07-29T13:21:36;5.88;;;3.08;;
8526;SDS011;4301;48.362;8.478;2022-07-29T13:24:05;4.10;;;2.92;;
8526;SDS011;4301;48.362;8.478;2022-07-29T13:26:34;5.30;;;3.30;;
8526;SDS011;4301;48.362;8.478;2022-07-29T13:29:05;7.93;;;3.38;;
8526;SDS011;4301;48.362;8.478;2022-07-29T13:31:32;6.88;;;3.45;;
8526;SDS011;4301;48.362;8.478;2022-07-29T13:33:59;4.78;;;3.15;;
8526;SDS011;4301;48.362;8.478;2022-07-29T13:36:27;3.45;;;3.15;;
8526;SDS011;4301;48.362;8.478;2022-07-29T13:38:54;5.72;;;2.97;;
8526;SDS011;4301;48.362;8.478;2022-07-29T13:41:21;6.28;;;3.00;;
8526;SDS011;4301;48.362;8.478;2022-07-29T13:43:49;5.50;;;3.33;;
8526;SDS011;4301;48.362;8.478;2022-07-29T13:46:16;6.10;;;2.92;;
8526;SDS011;4301;48.362;8.478;2022-07-29T13:48:44;4.20;;;3.00;;
8526;SDS011;4301;48.362;8.478;2022-07-29T13:51:11;3.97;;;3.00;;
8526;SDS011;4301;48.362;8.478;2022-07-29T13:53:38;4.68;;;2.83;;
8526;SDS011;4301;48.362;8.478;2022-07-29T13:56:05;4.10;;;2.50;;
8526;SDS011;4301;48.362;8.478;2022-07-29T13:58:32;3.92;;;2.40;;
8526;SDS011;4301;48.362;8.478;2022-07-29T14:01:00;4.75;;;2.60;;
8526;SDS011;4301;48.362;8.478;2022-07-29T14:03:27;2.83;;;2.63;;
8526;SDS011;4301;48.362;8.478;2022-07-29T14:05:55;3.25;;;2.67;;
8526;SDS011;4301;48.362;8.478;2022-07-29T14:08:25;3.17;;;2.63;;
8526;SDS011;4301;48.362;8.478;2022-07-29T14:10:52;6.78;;;2.85;;
8526;SDS011;4301;48.362;8.478;2022-07-29T14:13:19;5.63;;;2.90;;
8526;SDS011;4301;48.362;8.478;2022-07-29T14:15:46;3.80;;;2.60;;
8526;SDS011;4301;48.362;8.478;2022-07-29T14:18:14;3.05;;;2.40;;
8526;SDS011;4301;48.362;8.478;2022-07-29T14:20:41;2.80;;;2.60;;
8526;SDS011;4301;48.362;8.478;2022-07-29T14:23:08;9.10;;;2.85;;
8526;SDS011;4301;48.362;8.478;2022-07-29T14:25:35;4.90;;;2.53;;
8526;SDS011;4301;48.362;8.478;2022-07-29T14:28:03;2.83;;;2.50;;
8526;SDS011;4301;48.362;8.478;2022-07-29T14:30:30;4.25;;;2.67;;
8526;SDS011;4301;48.362;8.478;2022-07-29T14:32:57;2.53;;;2.33;;
8526;SDS011;4301;48.362;8.478;2022-07-29T14:35:25;13.48;;;2.40;;
8526;SDS011;4301;48.362;8.478;2022-07-29T14:37:52;5.75;;;2.50;;
8526;SDS011;4301;48.362;8.478;2022-07-29T14:40:20;3.05;;;2.78;;
8526;SDS011;4301;48.362;8.478;2022-07-29T14:42:47;2.45;;;2.25;;
8526;SDS011;4301;48.362;8.478;2022-07-29T14:45:14;5.75;;;2.80;;
8526;SDS011;4301;48.362;8.478;2022-07-29T14:47:41;5.47;;;2.70;;
8526;SDS011;4301;48.362;8.478;2022-07-29T14:50:08;3.00;;;2.65;;
8526;SDS011;4301;48.362;8.478;2022-07-29T14:52:37;3.67;;;2.75;;
8526;SDS011;4301;48.362;8.478;2022-07-29T14:55:05;2.78;;;2.53;;
8526;SDS011;4301;48.362;8.478;2022-07-29T14:57:33;3.95;;;2.58;;
8526;SDS011;4301;48.362;8.478;2022-07-29T15:00:00;4.70;;;2.53;;
8526;SDS011;4301;48.362;8.478;2022-07-29T15:02:27;5.43;;;2.60;;
8526;SDS011;4301;48.362;8.478;2022-07-29T15:04:54;5.95;;;2.60;;
8526;SDS011;4301;48.362;8.478;2022-07-29T15:07:22;4.28;;;2.42;;
8526;SDS011;4301;48.362;8.478;2022-07-29T15:09:50;5.30;;;2.78;;
8526;SDS011;4301;48.362;8.478;2022-07-29T15:12:17;2.92;;;2.45;;
8526;SDS011;4301;48.362;8.478;2022-07-29T15:14:44;4.53;;;2.45;;
8526;SDS011;4301;48.362;8.478;2022-07-29T15:17:11;3.03;;;2.70;;
8526;SDS011;4301;48.362;8.478;2022-07-29T15:19:39;5.13;;;2.80;;
8526;SDS011;4301;48.362;8.478;2022-07-29T15:22:06;5.00;;;2.70;;
8526;SDS011;4301;48.362;8.478;2022-07-29T15:24:33;3.65;;;2.70;;
8526;SDS011;4301;48.362;8.478;2022-07-29T15:27:01;4.72;;;2.60;;
8526;SDS011;4301;48.362;8.478;2022-07-29T15:29:28;7.03;;;3.08;;
8526;SDS011;4301;48.362;8.478;2022-07-29T15:31:56;3.83;;;2.42;;
8526;SDS011;4301;48.362;8.478;2022-07-29T15:34:23;4.85;;;2.67;;
8526;SDS011;4301;48.362;8.478;2022-07-29T15:36:50;4.65;;;2.70;;
8526;SDS011;4301;48.362;8.478;2022-07-29T15:39:17;5.93;;;2.47;;
8526;SDS011;4301;48.362;8.478;2022-07-29T15:41:45;4.88;;;2.75;;
8526;SDS011;4301;48.362;8.478;2022-07-29T15:44:13;3.50;;;2.92;;